Musella, Georgia
Current Conditions -  °F | °C
As of 9:55 PM on Sunday 23 Nov 2014 (Local Time) from KOPN Reporting Station
Overcast Overcast  
Wind Chill: 63°   Ceiling: 1300
Heat Index: 63°   Visibility: 10mi
Dew Point: 61°   Wind: 14mph
Humidity: 94%   Direction: 220°SW
Pressure: 29.78"   Gusts: 20mph
Location:  32.8°N, 84.03°W
Report Text: KOPN 240255Z AUTO 22012G17KT 10SM OVC013 17/16 A2978 RMK AO2 LTG DSNT E
Loading
Personal Weather Stations






























Interactive Weather Map New forecast layout! Learn more

10-Day Weather Forecast

Advertisements
Track Severe Weather on mobile